Time;durP1;ratioP1;P1;durP2;ratioP2;P2;SDS_P1;SDS_P2;PMS_P1;PMS_P2;Temp;Humidity;BMP_temperature;BMP_pressure;BME280_temperature;BME280_humidity;BME280_pressure;Samples;Min_cycle;Max_cycle;Signal;HPM_P1;HPM_P2
2022/06/24 00:25:57;;;;;;;8.73;8.13;;;;;;;;;;5695008;22;20431;-87
2022/06/24 00:49:36;;;;;;;9.00;8.17;;;;;;;;;;5067636;23;20531;-90
2022/06/24 00:52:07;;;;;;;9.13;8.13;;;;;;;;;;5009063;28;20459;-90
2022/06/24 00:54:39;;;;;;;10.13;9.00;;;;;;;;;;5017761;28;20446;-90
2022/06/24 00:57:05;;;;;;;12.83;10.10;;;;;;;;;;4993944;28;20462;-89
2022/06/24 00:59:49;;;;;;;10.53;9.73;;;;;;;;;;5019789;28;20566;-90
2022/06/24 01:02:16;;;;;;;15.33;10.87;;;;;;;;;;5008720;28;20430;-89
2022/06/24 01:04:43;;;;;;;12.97;11.77;;;;;;;;;;5030954;28;20426;-90
2022/06/24 01:07:09;;;;;;;15.47;11.57;;;;;;;;;;5009405;28;20443;-89
2022/06/24 01:09:35;;;;;;;22.07;11.87;;;;;;;;;;5011182;28;20553;-89
2022/06/24 01:12:04;;;;;;;12.97;11.63;;;;;;;;;;5007185;28;20457;-89
2022/06/24 01:14:30;;;;;;;13.83;11.17;;;;;;;;;;5032750;28;20459;-89
2022/06/24 01:17:06;;;;;;;12.43;11.27;;;;;;;;;;5012791;28;20443;-89
2022/06/24 01:19:34;;;;;;;12.70;11.30;;;;;;;;;;5035797;28;20425;-90
2022/06/24 01:22:09;;;;;;;11.27;10.17;;;;;;;;;;5043752;28;20472;-90
2022/06/24 01:24:35;;;;;;;15.87;11.53;;;;;;;;;;5013618;28;20940;-89
2022/06/24 01:27:02;;;;;;;14.43;11.43;;;;;;;;;;5007222;28;20443;-90
2022/06/24 01:29:37;;;;;;;11.43;10.33;;;;;;;;;;5017016;28;20466;-89
2022/06/24 01:32:06;;;;;;;12.70;11.40;;;;;;;;;;5005384;28;20439;-88
2022/06/24 02:27:54;;;;;;;9.33;8.20;;;;;;;;;;4994045;28;20489;-94
2022/06/24 02:30:38;;;;;;;8.80;7.90;;;;;;;;;;4953424;29;20461;-93
2022/06/24 02:33:22;;;;;;;7.47;6.80;;;;;;;;;;4972030;28;20422;-95
2022/06/24 02:35:55;;;;;;;7.80;7.20;;;;;;;;;;4958204;29;20433;-94
2022/06/24 02:38:25;;;;;;;10.73;7.90;;;;;;;;;;4974529;28;20426;-93
2022/06/24 02:40:51;;;;;;;9.10;7.80;;;;;;;;;;4991704;28;20440;-95
2022/06/24 02:46:16;;;;;;;8.70;8.00;;;;;;;;;;4972845;28;20441;-94
2022/06/24 02:48:53;;;;;;;9.07;8.27;;;;;;;;;;4984173;28;20471;-95
2022/06/24 02:51:22;;;;;;;9.50;8.70;;;;;;;;;;4982816;28;20947;-93
2022/06/24 02:54:05;;;;;;;9.23;8.43;;;;;;;;;;4987874;28;20416;-94
2022/06/24 02:56:32;;;;;;;8.40;7.60;;;;;;;;;;4964598;28;20443;-93
2022/06/24 02:59:00;;;;;;;8.67;7.87;;;;;;;;;;4993347;28;20399;-94
2022/06/24 03:01:47;;;;;;;;;;;;;;;;;;;;;
2022/06/24 03:04:31;;;;;;;11.80;7.77;;;;;;;;;;4975956;28;20449;-93
2022/06/24 03:07:19;;;;;;;8.03;7.43;;;;;;;;;;4985984;28;20420;-94
2022/06/24 03:09:48;;;;;;;7.50;6.90;;;;;;;;;;4967868;28;20482;-95
2022/06/24 03:12:30;;;;;;;10.70;7.23;;;;;;;;;;4975157;28;20432;-95
2022/06/24 03:15:04;;;;;;;12.53;8.27;;;;;;;;;;4973503;28;20402;-93
2022/06/24 03:17:52;;;;;;;8.50;7.77;;;;;;;;;;4968046;29;20461;-94
2022/06/24 03:20:37;;;;;;;7.90;7.40;;;;;;;;;;4971952;29;20429;-95
2022/06/24 03:23:03;;;;;;;8.07;7.27;;;;;;;;;;4964609;29;20438;-95
2022/06/24 03:25:31;;;;;;;8.57;7.80;;;;;;;;;;4960758;28;20472;-94
2022/06/24 03:27:57;;;;;;;8.40;7.70;;;;;;;;;;4990328;28;20443;-93
2022/06/24 03:30:36;;;;;;;8.67;7.87;;;;;;;;;;5009186;28;20821;-93
2022/06/24 03:33:05;;;;;;;7.13;6.67;;;;;;;;;;4973354;28;20472;-94
2022/06/24 03:35:36;;;;;;;6.40;6.00;;;;;;;;;;4992724;28;20449;-90
2022/06/24 03:38:18;;;;;;;6.03;5.73;;;;;;;;;;4970828;28;20417;-93
2022/06/24 03:40:55;;;;;;;7.50;7.00;;;;;;;;;;4952151;28;20521;-93
2022/06/24 03:43:35;;;;;;;7.70;7.13;;;;;;;;;;4983996;28;20429;-94
2022/06/24 03:46:04;;;;;;;7.23;6.67;;;;;;;;;;4962708;28;20506;-94
2022/06/24 03:48:36;;;;;;;7.77;7.10;;;;;;;;;;4995094;28;20460;-93
2022/06/24 03:51:14;;;;;;;;;;;;;;;;;;;;;
2022/06/24 03:53:43;;;;;;;6.73;6.23;;;;;;;;;;4970289;29;20442;-95
2022/06/24 03:56:41;;;;;;;7.20;6.80;;;;;;;;;;4965103;28;20975;-95
2022/06/24 03:59:07;;;;;;;8.63;7.83;;;;;;;;;;4935556;28;20515;-92
2022/06/24 04:01:44;;;;;;;8.77;8.10;;;;;;;;;;4981042;28;20425;-95
2022/06/24 04:04:18;;;;;;;10.13;8.77;;;;;;;;;;4970728;28;20433;-95
2022/06/24 04:06:50;;;;;;;7.30;6.90;;;;;;;;;;4989255;28;20507;-92
2022/06/24 04:09:22;;;;;;;9.43;8.60;;;;;;;;;;4987293;28;20449;-94
2022/06/24 04:12:02;;;;;;;9.43;8.67;;;;;;;;;;4999694;28;20421;-94
2022/06/24 04:17:13;;;;;;;10.63;9.70;;;;;;;;;;5009552;28;20425;-94
2022/06/24 04:19:45;;;;;;;11.30;10.33;;;;;;;;;;5011683;28;20431;-94
2022/06/24 04:22:19;;;;;;;9.90;9.30;;;;;;;;;;4992673;28;20465;-94
2022/06/24 04:24:55;;;;;;;10.30;9.50;;;;;;;;;;4995425;28;20452;-93
2022/06/24 04:30:38;;;;;;;12.37;9.63;;;;;;;;;;4975725;28;20533;-95
2022/06/24 04:33:30;;;;;;;10.03;9.33;;;;;;;;;;4991169;28;20445;-94
2022/06/24 04:36:16;;;;;;;10.50;9.60;;;;;;;;;;4970225;28;20461;-93
2022/06/24 04:38:48;;;;;;;11.13;10.33;;;;;;;;;;5056959;23;20503;-92
2022/06/24 04:44:20;;;;;;;11.50;10.70;;;;;;;;;;5028307;28;20454;-93
2022/06/24 04:50:26;;;;;;;13.13;12.07;;;;;;;;;;5080243;23;20494;-93
2022/06/24 04:53:10;;;;;;;13.00;12.10;;;;;;;;;;4993124;28;20425;-91
2022/06/24 04:55:53;;;;;;;12.30;11.40;;;;;;;;;;5002074;28;20427;-92
2022/06/24 04:58:24;;;;;;;13.40;12.50;;;;;;;;;;5004622;28;20500;-95
2022/06/24 05:00:52;;;;;;;13.73;12.73;;;;;;;;;;4994409;28;20428;-93
2022/06/24 05:03:47;;;;;;;13.23;11.73;;;;;;;;;;4991273;28;20437;-94
2022/06/24 05:06:20;;;;;;;14.00;12.70;;;;;;;;;;5236480;23;20470;-94
2022/06/24 05:08:52;;;;;;;14.30;13.33;;;;;;;;;;5065725;23;20483;-96
2022/06/24 05:11:19;;;;;;;14.87;13.67;;;;;;;;;;4974293;28;20433;-89
2022/06/24 05:14:02;;;;;;;19.23;17.77;;;;;;;;;;4995798;28;20551;-95
2022/06/24 05:16:34;;;;;;;14.97;13.60;;;;;;;;;;4988999;28;20425;-92
2022/06/24 05:19:00;;;;;;;15.73;14.30;;;;;;;;;;4989756;28;20405;-95
2022/06/24 05:21:29;;;;;;;15.73;14.60;;;;;;;;;;5004011;28;20455;-94
2022/06/24 05:24:05;;;;;;;16.70;15.07;;;;;;;;;;4986525;28;20747;-95
2022/06/24 05:26:32;;;;;;;14.77;13.77;;;;;;;;;;4990892;28;20413;-92
2022/06/24 05:31:33;;;;;;;16.57;14.87;;;;;;;;;;5009859;28;20428;-94
2022/06/24 05:34:01;;;;;;;16.33;15.03;;;;;;;;;;5164632;22;20678;-88
2022/06/24 05:41:41;;;;;;;19.87;18.17;;;;;;;;;;5390291;22;20494;-91
2022/06/24 05:44:12;;;;;;;18.63;16.20;;;;;;;;;;5012062;28;20455;-86
2022/06/24 05:47:01;;;;;;;17.67;16.27;;;;;;;;;;5195569;23;20502;-92
2022/06/24 05:49:32;;;;;;;18.90;17.23;;;;;;;;;;4969641;28;20474;-93
2022/06/24 05:51:58;;;;;;;19.13;17.53;;;;;;;;;;5141910;23;20487;-90
2022/06/24 05:57:22;;;;;;;18.40;16.70;;;;;;;;;;5061996;22;20498;-92
2022/06/24 06:00:04;;;;;;;19.23;17.53;;;;;;;;;;5029038;28;20415;-92
2022/06/24 06:02:30;;;;;;;17.50;16.10;;;;;;;;;;5027048;28;20474;-88
2022/06/24 06:04:56;;;;;;;18.60;16.77;;;;;;;;;;5031083;28;20448;-90
2022/06/24 06:07:27;;;;;;;18.40;16.80;;;;;;;;;;5017456;28;20453;-91
2022/06/24 06:09:55;;;;;;;18.30;16.70;;;;;;;;;;5007475;28;20497;-87
2022/06/24 06:12:48;;;;;;;17.33;15.90;;;;;;;;;;5024114;28;20488;-90
2022/06/24 06:15:17;;;;;;;16.93;15.63;;;;;;;;;;5030776;28;20439;-90
2022/06/24 06:17:43;;;;;;;20.67;18.67;;;;;;;;;;5047659;28;20442;-92
2022/06/24 06:20:12;;;;;;;18.50;17.10;;;;;;;;;;5031007;28;21159;-86
2022/06/24 06:22:38;;;;;;;16.80;15.20;;;;;;;;;;5028748;28;20464;-88
2022/06/24 06:25:05;;;;;;;16.40;15.20;;;;;;;;;;5035771;28;20871;-89
2022/06/24 06:27:52;;;;;;;16.13;14.87;;;;;;;;;;5028916;28;20537;-90
2022/06/24 06:30:17;;;;;;;16.07;14.97;;;;;;;;;;5035079;28;20536;-91
2022/06/24 06:32:44;;;;;;;15.43;14.23;;;;;;;;;;5045402;28;20425;-89
2022/06/24 06:35:11;;;;;;;15.30;14.20;;;;;;;;;;5099165;23;20507;-88
2022/06/24 06:37:38;;;;;;;16.17;14.83;;;;;;;;;;4961436;28;20545;-90
2022/06/24 06:40:04;;;;;;;14.33;13.23;;;;;;;;;;4982439;28;20528;-87
2022/06/24 06:42:30;;;;;;;15.30;14.07;;;;;;;;;;4974440;28;20456;-88
2022/06/24 06:44:56;;;;;;;14.33;13.13;;;;;;;;;;4956392;28;20470;-88
2022/06/24 06:47:22;;;;;;;14.60;13.10;;;;;;;;;;4972081;28;20437;-88
2022/06/24 06:49:48;;;;;;;14.87;13.87;;;;;;;;;;4972759;28;20488;-88
2022/06/24 06:52:15;;;;;;;13.70;12.70;;;;;;;;;;4980868;28;20434;-93
2022/06/24 06:54:41;;;;;;;10.50;9.60;;;;;;;;;;4975810;28;20429;-92
2022/06/24 06:57:10;;;;;;;9.90;9.20;;;;;;;;;;4988136;28;20565;-91
2022/06/24 06:59:36;;;;;;;10.93;9.90;;;;;;;;;;4989887;28;20472;-90
2022/06/24 07:02:02;;;;;;;9.33;8.43;;;;;;;;;;4974232;28;20440;-91
2022/06/24 07:04:28;;;;;;;9.33;8.73;;;;;;;;;;4981241;28;20426;-93
2022/06/24 07:06:56;;;;;;;6.90;6.50;;;;;;;;;;4967405;28;20430;-93
2022/06/24 07:09:28;;;;;;;7.30;6.70;;;;;;;;;;4974231;28;20919;-90
2022/06/24 07:11:54;;;;;;;6.70;6.20;;;;;;;;;;4985945;28;20420;-92
2022/06/24 07:14:20;;;;;;;6.77;6.30;;;;;;;;;;4970800;28;20520;-93
2022/06/24 07:16:46;;;;;;;6.73;6.23;;;;;;;;;;4985608;28;20464;-93
2022/06/24 07:19:12;;;;;;;5.60;5.20;;;;;;;;;;4991748;28;20432;-93
2022/06/24 07:21:39;;;;;;;7.67;6.00;;;;;;;;;;4963510;28;20437;-91
2022/06/24 07:24:08;;;;;;;4.97;4.53;;;;;;;;;;4965367;28;20519;-89
2022/06/24 07:26:34;;;;;;;6.70;6.00;;;;;;;;;;4998772;28;20428;-91
2022/06/24 07:29:00;;;;;;;9.20;8.30;;;;;;;;;;4960205;28;20457;-87
2022/06/24 07:31:26;;;;;;;11.07;10.37;;;;;;;;;;4964132;28;20835;-91
2022/06/24 07:33:52;;;;;;;13.20;12.30;;;;;;;;;;4958692;28;20496;-87
2022/06/24 07:36:18;;;;;;;13.43;12.53;;;;;;;;;;4957224;28;20454;-92
2022/06/24 07:38:44;;;;;;;12.40;11.40;;;;;;;;;;4967290;28;20438;-91
2022/06/24 07:41:11;;;;;;;13.43;12.33;;;;;;;;;;4960453;28;20429;-91
2022/06/24 07:43:37;;;;;;;13.17;11.93;;;;;;;;;;4960741;29;20438;-94
2022/06/24 07:48:40;;;;;;;9.07;8.63;;;;;;;;;;5047029;23;20480;-89
2022/06/24 07:51:16;;;;;;;8.63;8.13;;;;;;;;;;4981849;28;20444;-91
2022/06/24 07:53:43;;;;;;;10.13;9.23;;;;;;;;;;4948022;29;20549;-88
2022/06/24 07:58:54;;;;;;;8.83;8.30;;;;;;;;;;4978522;28;20476;-91
2022/06/24 08:01:20;;;;;;;7.10;6.57;;;;;;;;;;4968517;28;20815;-89
2022/06/24 08:03:46;;;;;;;8.60;7.90;;;;;;;;;;4959651;28;20859;-91
2022/06/24 08:06:12;;;;;;;9.20;8.70;;;;;;;;;;4963405;28;20432;-89
2022/06/24 08:08:39;;;;;;;7.90;7.30;;;;;;;;;;4983556;28;20436;-89
2022/06/24 08:11:07;;;;;;;8.97;8.40;;;;;;;;;;4976045;28;20541;-90
2022/06/24 08:13:42;;;;;;;11.27;10.37;;;;;;;;;;5011552;28;20428;-91
2022/06/24 08:16:38;;;;;;;9.50;8.90;;;;;;;;;;4966251;28;20417;-93
2022/06/24 08:19:07;;;;;;;10.40;9.70;;;;;;;;;;4992672;28;20435;-91
2022/06/24 08:24:29;;;;;;;18.53;12.10;;;;;;;;;;4993293;28;20441;-90
2022/06/24 08:27:03;;;;;;;10.40;9.30;;;;;;;;;;4982125;28;20434;-90
2022/06/24 08:29:29;;;;;;;8.50;7.90;;;;;;;;;;4978635;28;20555;-89
2022/06/24 08:31:55;;;;;;;8.60;7.90;;;;;;;;;;4985521;28;20463;-90
2022/06/24 08:34:22;;;;;;;6.10;5.90;;;;;;;;;;4987025;28;20432;-90
2022/06/24 08:36:48;;;;;;;6.63;6.30;;;;;;;;;;4980201;28;20505;-87
2022/06/24 08:39:14;;;;;;;5.77;5.47;;;;;;;;;;4957358;28;20490;-88
2022/06/24 08:41:45;;;;;;;3.73;3.63;;;;;;;;;;4976413;28;20429;-88
2022/06/24 08:44:12;;;;;;;5.57;4.33;;;;;;;;;;4981469;28;20497;-89
2022/06/24 08:46:42;;;;;;;4.47;4.27;;;;;;;;;;4963324;28;20440;-89
2022/06/24 08:49:17;;;;;;;6.33;5.93;;;;;;;;;;4962097;28;20483;-88
2022/06/24 08:51:46;;;;;;;4.63;4.53;;;;;;;;;;4962062;28;20478;-86
2022/06/24 08:54:12;;;;;;;3.50;3.30;;;;;;;;;;4959461;28;20449;-87
2022/06/24 08:56:40;;;;;;;3.97;3.80;;;;;;;;;;4948308;29;20445;-88
2022/06/24 08:59:07;;;;;;;4.47;4.17;;;;;;;;;;4964528;28;20429;-88
2022/06/24 09:01:38;;;;;;;4.73;4.37;;;;;;;;;;4980545;28;20405;-88
2022/06/24 09:04:04;;;;;;;4.77;4.57;;;;;;;;;;4980800;28;20434;-87
2022/06/24 09:06:36;;;;;;;6.10;5.60;;;;;;;;;;4978683;28;20465;-89
2022/06/24 09:09:06;;;;;;;5.13;4.93;;;;;;;;;;4954945;28;20473;-88
2022/06/24 09:11:39;;;;;;;5.90;5.50;;;;;;;;;;4981636;28;20436;-87
2022/06/24 09:14:06;;;;;;;6.83;6.40;;;;;;;;;;4961776;28;20497;-89
2022/06/24 09:16:35;;;;;;;6.20;6.00;;;;;;;;;;4977701;28;20433;-90
2022/06/24 09:19:03;;;;;;;5.80;5.57;;;;;;;;;;4980774;28;20447;-86
2022/06/24 09:21:34;;;;;;;5.63;5.33;;;;;;;;;;4994570;28;20508;-86
2022/06/24 09:24:02;;;;;;;5.50;5.07;;;;;;;;;;4277870;28;10000499;-88
2022/06/24 09:26:40;;;;;;;6.00;5.80;;;;;;;;;;4960198;28;20205;-88
2022/06/24 09:29:07;;;;;;;5.83;5.20;;;;;;;;;;4956700;28;20473;-88
2022/06/24 09:31:38;;;;;;;4.93;4.40;;;;;;;;;;4988867;28;20436;-88
2022/06/24 09:34:07;;;;;;;5.70;4.63;;;;;;;;;;4958568;28;20433;-86
2022/06/24 09:36:37;;;;;;;4.87;4.57;;;;;;;;;;4961458;28;20498;-88
2022/06/24 09:39:15;;;;;;;5.50;5.20;;;;;;;;;;4950160;28;20446;-88
2022/06/24 09:41:54;;;;;;;6.17;5.67;;;;;;;;;;4956655;28;20551;-89
2022/06/24 09:44:21;;;;;;;6.73;5.83;;;;;;;;;;4950430;28;20454;-87
2022/06/24 09:46:48;;;;;;;6.90;6.50;;;;;;;;;;4957734;28;20537;-88
2022/06/24 09:49:17;;;;;;;7.67;7.20;;;;;;;;;;4980022;28;20483;-87
2022/06/24 09:51:50;;;;;;;9.00;8.33;;;;;;;;;;4972688;28;20444;-89
2022/06/24 09:54:17;;;;;;;7.50;7.00;;;;;;;;;;5177224;23;20511;-90
2022/06/24 09:56:46;;;;;;;9.07;8.40;;;;;;;;;;4996682;28;20443;-88
2022/06/24 10:01:59;;;;;;;9.50;8.70;;;;;;;;;;4988435;28;20472;-88
2022/06/24 10:04:27;;;;;;;8.63;8.20;;;;;;;;;;4989520;28;20535;-89
2022/06/24 10:06:55;;;;;;;8.67;8.17;;;;;;;;;;4997506;28;20440;-89
2022/06/24 10:09:28;;;;;;;7.40;6.87;;;;;;;;;;5008320;28;20796;-89
2022/06/24 10:11:57;;;;;;;7.83;7.53;;;;;;;;;;5000028;28;20649;-89
2022/06/24 10:14:24;;;;;;;8.73;8.13;;;;;;;;;;4997341;28;20424;-92
2022/06/24 10:16:50;;;;;;;7.93;7.53;;;;;;;;;;5000519;28;20495;-89
2022/06/24 10:19:19;;;;;;;8.30;7.70;;;;;;;;;;5002094;28;20503;-89
2022/06/24 10:21:48;;;;;;;7.87;7.47;;;;;;;;;;4999673;28;20468;-90
2022/06/24 10:24:15;;;;;;;8.30;8.00;;;;;;;;;;4999881;28;20468;-87
2022/06/24 10:26:44;;;;;;;9.43;8.70;;;;;;;;;;4994190;28;20483;-88
2022/06/24 10:29:17;;;;;;;7.50;7.30;;;;;;;;;;4984574;28;20839;-89
2022/06/24 10:34:10;;;;;;;7.90;7.40;;;;;;;;;;4983388;28;20554;-90
2022/06/24 10:36:37;;;;;;;9.50;8.90;;;;;;;;;;5007556;22;20943;-90
2022/06/24 10:39:10;;;;;;;12.70;10.67;;;;;;;;;;4998576;28;20535;-89
2022/06/24 10:41:37;;;;;;;13.83;12.83;;;;;;;;;;5005886;28;20453;-88
2022/06/24 10:44:22;;;;;;;11.73;11.03;;;;;;;;;;4997141;28;20539;-88
2022/06/24 10:46:49;;;;;;;10.63;10.00;;;;;;;;;;4988140;28;20504;-89
2022/06/24 10:49:15;;;;;;;13.90;11.10;;;;;;;;;;5004277;28;20503;-88
2022/06/24 10:51:45;;;;;;;10.20;9.40;;;;;;;;;;4998947;28;20453;-90
2022/06/24 10:54:13;;;;;;;10.87;9.53;;;;;;;;;;4998863;28;20487;-87
2022/06/24 10:56:41;;;;;;;9.90;9.33;;;;;;;;;;4989053;28;20475;-88
2022/06/24 10:59:07;;;;;;;10.03;9.40;;;;;;;;;;5016923;28;20830;-89
2022/06/24 11:01:43;;;;;;;8.20;7.97;;;;;;;;;;5018171;28;20431;-91
2022/06/24 11:04:15;;;;;;;8.83;8.20;;;;;;;;;;4988095;28;20421;-91
2022/06/24 11:07:01;;;;;;;7.80;7.30;;;;;;;;;;4998686;28;20424;-90
2022/06/24 11:09:30;;;;;;;7.97;7.63;;;;;;;;;;4995708;28;20480;-90
2022/06/24 11:11:57;;;;;;;8.37;7.87;;;;;;;;;;4995643;28;20445;-88
2022/06/24 11:14:24;;;;;;;7.20;6.90;;;;;;;;;;4993870;28;20805;-88
2022/06/24 11:16:55;;;;;;;5.70;5.47;;;;;;;;;;5002765;28;20605;-89
2022/06/24 11:19:22;;;;;;;5.57;5.17;;;;;;;;;;5009177;28;21217;-91
2022/06/24 11:21:50;;;;;;;3.97;3.87;;;;;;;;;;5008023;28;20460;-89
2022/06/24 11:24:20;;;;;;;3.90;3.80;;;;;;;;;;4985541;28;20480;-88
2022/06/24 11:27:05;;;;;;;3.90;3.73;;;;;;;;;;4993416;28;20444;-90
2022/06/24 11:29:50;;;;;;;4.80;4.60;;;;;;;;;;4991527;28;20474;-91
2022/06/24 11:32:16;;;;;;;4.67;4.57;;;;;;;;;;4972260;28;20539;-91
2022/06/24 11:34:43;;;;;;;3.87;3.70;;;;;;;;;;4992751;28;20436;-91
2022/06/24 11:37:10;;;;;;;4.10;4.00;;;;;;;;;;4994340;28;20531;-90
2022/06/24 11:39:36;;;;;;;3.93;3.60;;;;;;;;;;4968375;28;20544;-87
2022/06/24 11:42:02;;;;;;;5.27;4.20;;;;;;;;;;4971865;28;20441;-87
2022/06/24 11:44:33;;;;;;;3.40;3.30;;;;;;;;;;4969807;28;20442;-89
2022/06/24 11:46:59;;;;;;;3.50;3.50;;;;;;;;;;4984505;28;20437;-88
2022/06/24 11:49:26;;;;;;;6.43;3.87;;;;;;;;;;4983726;28;20495;-88
2022/06/24 11:51:52;;;;;;;2.73;2.73;;;;;;;;;;4981790;28;20849;-89
2022/06/24 11:54:18;;;;;;;3.30;3.20;;;;;;;;;;4981611;28;20444;-90
2022/06/24 11:56:44;;;;;;;3.67;3.57;;;;;;;;;;4973169;28;20923;-88
2022/06/24 11:59:13;;;;;;;3.70;3.50;;;;;;;;;;4962320;28;20447;-87
2022/06/24 12:01:40;;;;;;;4.17;4.00;;;;;;;;;;4973347;28;20425;-88
2022/06/24 12:04:08;;;;;;;3.90;3.80;;;;;;;;;;4993572;28;20513;-88
2022/06/24 12:06:34;;;;;;;3.83;3.73;;;;;;;;;;4973168;28;20425;-89
2022/06/24 12:09:00;;;;;;;4.83;4.63;;;;;;;;;;4971006;28;20465;-88
2022/06/24 12:11:26;;;;;;;4.17;4.07;;;;;;;;;;4968821;28;20433;-87
2022/06/24 12:13:57;;;;;;;4.03;4.03;;;;;;;;;;4973849;28;20445;-89
2022/06/24 12:16:23;;;;;;;4.90;4.70;;;;;;;;;;4977138;28;20513;-90
2022/06/24 12:18:50;;;;;;;4.53;4.33;;;;;;;;;;4975260;28;20498;-89
2022/06/24 12:21:24;;;;;;;5.37;4.87;;;;;;;;;;4975289;28;20457;-89
2022/06/24 12:23:52;;;;;;;4.80;4.80;;;;;;;;;;4970695;28;21576;-90
2022/06/24 12:26:20;;;;;;;5.37;5.27;;;;;;;;;;4964424;28;20563;-89
2022/06/24 12:28:57;;;;;;;4.47;4.20;;;;;;;;;;4990628;28;20989;-91
2022/06/24 12:31:23;;;;;;;4.83;4.60;;;;;;;;;;4970378;28;20480;-88
2022/06/24 12:33:49;;;;;;;5.70;5.30;;;;;;;;;;4973913;28;20492;-87
2022/06/24 12:36:18;;;;;;;4.80;4.60;;;;;;;;;;4973169;28;20817;-90
2022/06/24 12:38:56;;;;;;;4.70;4.50;;;;;;;;;;4976484;28;20510;-89
2022/06/24 12:41:23;;;;;;;4.57;4.47;;;;;;;;;;4975308;28;20455;-88
2022/06/24 12:43:52;;;;;;;4.20;4.20;;;;;;;;;;4976083;28;20449;-88
2022/06/24 12:46:18;;;;;;;4.50;4.30;;;;;;;;;;4972445;28;21048;-88
2022/06/24 12:51:47;;;;;;;4.50;4.47;;;;;;;;;;4969386;28;20614;-89
2022/06/24 12:54:17;;;;;;;4.63;4.43;;;;;;;;;;4984033;28;20425;-87
2022/06/24 12:56:43;;;;;;;3.80;3.70;;;;;;;;;;4984325;28;20522;-87
2022/06/24 12:59:10;;;;;;;4.67;4.57;;;;;;;;;;4988961;28;20475;-90
2022/06/24 13:01:39;;;;;;;5.93;5.63;;;;;;;;;;4986941;28;20485;-91
2022/06/24 13:04:05;;;;;;;5.00;4.90;;;;;;;;;;4996174;28;20433;-90
2022/06/24 13:06:32;;;;;;;6.40;6.10;;;;;;;;;;4987560;28;20451;-91
2022/06/24 13:09:10;;;;;;;4.80;4.70;;;;;;;;;;5000515;28;20550;-94
2022/06/24 13:11:41;;;;;;;5.10;4.80;;;;;;;;;;4988251;28;20481;-95
2022/06/24 13:14:11;;;;;;;4.07;4.07;;;;;;;;;;4986206;28;20444;-93
2022/06/24 13:16:39;;;;;;;5.17;4.93;;;;;;;;;;4987709;28;20445;-93
2022/06/24 13:19:06;;;;;;;5.60;5.40;;;;;;;;;;4987275;28;20440;-93
2022/06/24 13:21:32;;;;;;;5.13;4.73;;;;;;;;;;4996145;28;20447;-92
2022/06/24 13:24:06;;;;;;;6.10;5.80;;;;;;;;;;4983984;28;20457;-92
2022/06/24 13:26:33;;;;;;;5.10;4.90;;;;;;;;;;4984340;28;20433;-91
2022/06/24 13:28:59;;;;;;;4.80;4.43;;;;;;;;;;4985674;28;20467;-90
2022/06/24 13:31:25;;;;;;;5.70;5.50;;;;;;;;;;4986688;28;20461;-94
2022/06/24 13:33:54;;;;;;;5.20;5.10;;;;;;;;;;4982453;28;20453;-92
2022/06/24 13:36:23;;;;;;;6.17;5.97;;;;;;;;;;4986092;28;20477;-92
2022/06/24 13:38:51;;;;;;;5.53;5.40;;;;;;;;;;4979715;28;20460;-92
2022/06/24 13:41:17;;;;;;;5.83;5.60;;;;;;;;;;4996679;28;20433;-90
2022/06/24 13:43:45;;;;;;;5.57;5.47;;;;;;;;;;5002171;28;20428;-91
2022/06/24 13:46:12;;;;;;;6.00;5.80;;;;;;;;;;4991814;28;20454;-90
2022/06/24 13:48:38;;;;;;;5.43;5.33;;;;;;;;;;4982149;28;20454;-90
2022/06/24 13:51:04;;;;;;;5.37;5.27;;;;;;;;;;4996199;28;20421;-90
2022/06/24 13:53:33;;;;;;;5.60;5.43;;;;;;;;;;4999175;28;20503;-87
2022/06/24 13:56:07;;;;;;;5.73;5.47;;;;;;;;;;5008397;28;20424;-91
2022/06/24 13:58:52;;;;;;;;;;;;;;;;;;;;;
2022/06/24 14:01:36;;;;;;;;;;;;;;;;;;;;;
2022/06/24 14:04:08;;;;;;;4.70;4.60;;;;;;;;;;4969859;28;20858;-92
2022/06/24 14:09:23;;;;;;;6.03;5.83;;;;;;;;;;5446555;23;20484;-90
2022/06/24 14:11:51;;;;;;;5.90;5.67;;;;;;;;;;5003724;28;20436;-90
2022/06/24 14:14:18;;;;;;;5.37;5.20;;;;;;;;;;5002521;28;20441;-91
2022/06/24 14:16:56;;;;;;;7.30;4.90;;;;;;;;;;4988715;28;20445;-91
2022/06/24 14:19:30;;;;;;;4.97;4.87;;;;;;;;;;4981535;28;20559;-93
2022/06/24 14:21:59;;;;;;;5.20;5.00;;;;;;;;;;4986789;28;20444;-91
2022/06/24 14:24:35;;;;;;;6.60;5.57;;;;;;;;;;4991731;28;20446;-92
2022/06/24 14:32:40;;;;;;;3.77;3.70;;;;;;;;;;5021784;22;20491;-91
2022/06/24 14:35:11;;;;;;;4.17;4.17;;;;;;;;;;4978235;28;20453;-91
2022/06/24 14:43:33;;;;;;;3.30;3.30;;;;;;;;;;5277668;22;20488;-93
2022/06/24 14:46:05;;;;;;;6.70;6.30;;;;;;;;;;4989518;28;20437;-88
2022/06/24 14:48:34;;;;;;;3.47;3.43;;;;;;;;;;4978117;28;20426;-92
2022/06/24 14:51:04;;;;;;;4.37;3.63;;;;;;;;;;4958814;29;20470;-94
2022/06/24 14:53:31;;;;;;;3.03;3.00;;;;;;;;;;5404688;23;20486;-90
2022/06/24 14:55:57;;;;;;;3.47;3.30;;;;;;;;;;5021554;28;20436;-91
2022/06/24 14:58:25;;;;;;;5.83;5.70;;;;;;;;;;5022325;28;20428;-91
2022/06/24 15:00:54;;;;;;;4.37;4.27;;;;;;;;;;5007293;28;20455;-91
2022/06/24 15:03:20;;;;;;;4.20;4.00;;;;;;;;;;5006884;28;20448;-90
2022/06/24 15:05:46;;;;;;;3.57;3.57;;;;;;;;;;5002945;28;20491;-88
2022/06/24 15:08:21;;;;;;;3.70;3.70;;;;;;;;;;5012261;28;20436;-90
2022/06/24 15:10:53;;;;;;;4.03;3.93;;;;;;;;;;5004448;28;20468;-92
2022/06/24 15:13:23;;;;;;;2.70;2.50;;;;;;;;;;5022112;28;20429;-91
2022/06/24 15:15:49;;;;;;;7.23;3.43;;;;;;;;;;5005723;28;20432;-89
2022/06/24 15:18:18;;;;;;;3.37;3.17;;;;;;;;;;5009794;28;20455;-92
2022/06/24 15:20:44;;;;;;;3.93;3.83;;;;;;;;;;5006064;28;20868;-91
2022/06/24 15:23:10;;;;;;;2.40;2.40;;;;;;;;;;5024788;28;20428;-91
2022/06/24 15:25:37;;;;;;;2.37;2.37;;;;;;;;;;5003293;28;20424;-91
2022/06/24 15:28:03;;;;;;;2.67;2.67;;;;;;;;;;5013544;28;20415;-91
2022/06/24 15:30:32;;;;;;;2.47;2.47;;;;;;;;;;5029263;28;20459;-91
2022/06/24 15:36:29;;;;;;;2.70;2.60;;;;;;;;;;4059563;26;20481;-92
2022/06/24 15:39:21;;;;;;;3.10;3.00;;;;;;;;;;4966595;28;20433;-92
2022/06/24 15:41:58;;;;;;;3.20;3.10;;;;;;;;;;4986243;28;20520;-93
2022/06/24 15:44:25;;;;;;;2.70;2.60;;;;;;;;;;4989152;28;20433;-89
2022/06/24 15:47:00;;;;;;;3.00;3.00;;;;;;;;;;4989399;28;20441;-93
2022/06/24 16:07:02;;;;;;;4.23;3.93;;;;;;;;;;5255026;23;20480;-92
2022/06/24 16:09:37;;;;;;;2.53;2.53;;;;;;;;;;4988227;28;20461;-89
2022/06/24 16:12:32;;;;;;;2.80;2.80;;;;;;;;;;4996749;28;20436;-92
2022/06/24 16:15:27;;;;;;;3.43;3.20;;;;;;;;;;4971845;28;20445;-91
2022/06/24 16:18:26;;;;;;;2.83;2.83;;;;;;;;;;4969761;28;20440;-90
2022/06/24 16:21:29;;;;;;;3.30;3.10;;;;;;;;;;4964093;28;20498;-91
2022/06/24 16:24:32;;;;;;;4.00;3.70;;;;;;;;;;4885702;29;20453;-91
2022/06/24 16:29:53;;;;;;;3.57;3.33;;;;;;;;;;4962146;29;20473;-89
2022/06/24 16:32:19;;;;;;;3.37;3.20;;;;;;;;;;4933584;29;20442;-89
2022/06/24 16:35:05;;;;;;;3.57;3.47;;;;;;;;;;4990460;28;20468;-92
2022/06/24 16:38:09;;;;;;;3.00;2.90;;;;;;;;;;4975156;28;20406;-91
2022/06/24 16:40:37;;;;;;;3.27;3.17;;;;;;;;;;4944216;28;20469;-90
2022/06/24 16:43:29;;;;;;;3.60;3.50;;;;;;;;;;4957366;28;20453;-91
2022/06/24 16:51:58;;;;;;;7.37;6.77;;;;;;;;;;4964077;29;20453;-92
2022/06/24 16:54:25;;;;;;;5.80;5.40;;;;;;;;;;5005377;28;20584;-90
2022/06/24 17:03:25;;;;;;;;;;;;;;;;;;;;;
2022/06/24 17:09:25;;;;;;;8.10;7.50;;;;;;;;;;5027542;23;20464;-93
2022/06/24 17:15:30;;;;;;;6.73;6.33;;;;;;;;;;4954526;28;20449;-90
2022/06/24 18:06:07;;;;;;;;;;;;;;;;;;;;;
2022/06/24 18:08:56;;;;;;;3.70;3.70;;;;;;;;;;5043644;28;20862;-94
2022/06/24 18:39:57;;;;;;;4.20;4.00;;;;;;;;;;4910360;22;10002139;-92
2022/06/24 18:42:56;;;;;;;;;;;;;;;;;;;;;
2022/06/24 18:45:45;;;;;;;;;;;;;;;;;;;;;
2022/06/24 18:48:57;;;;;;;3.40;3.30;;;;;;;;;;4975860;28;20458;-94
2022/06/24 18:51:53;;;;;;;3.73;3.60;;;;;;;;;;5007374;28;20453;-95
2022/06/24 18:57:39;;;;;;;3.80;3.70;;;;;;;;;;4971615;29;20512;-93
2022/06/24 19:00:28;;;;;;;3.00;3.00;;;;;;;;;;4987254;28;20997;-93
2022/06/24 19:06:28;;;;;;;2.70;2.70;;;;;;;;;;4991584;28;20413;-90
2022/06/24 19:09:03;;;;;;;3.70;3.47;;;;;;;;;;4991243;28;20429;-92
2022/06/24 19:11:55;;;;;;;2.70;2.60;;;;;;;;;;4976660;28;20428;-91
2022/06/24 19:18:08;;;;;;;2.90;2.90;;;;;;;;;;4995740;28;20488;-92
2022/06/24 19:38:53;;;;;;;2.40;2.40;;;;;;;;;;5685728;23;20496;-92
2022/06/24 19:41:57;;;;;;;;;;;;;;;;;;;;;
2022/06/24 19:52:46;;;;;;;3.00;3.00;;;;;;;;;;5004902;22;20556;-93
2022/06/24 19:58:15;;;;;;;3.40;2.97;;;;;;;;;;5396550;23;20494;-90
2022/06/24 20:00:50;;;;;;;3.33;3.33;;;;;;;;;;5044181;28;20454;-90
2022/06/24 20:06:10;;;;;;;7.80;3.87;;;;;;;;;;5040221;28;20445;-91
2022/06/24 20:08:49;;;;;;;;;;;;;;;;;;;;;
2022/06/24 20:16:53;;;;;;;3.73;3.70;;;;;;;;;;5020202;28;20452;-92
2022/06/24 20:19:19;;;;;;;4.50;4.30;;;;;;;;;;5004318;28;20770;-91
2022/06/24 20:21:56;;;;;;;4.37;4.20;;;;;;;;;;5000936;28;20467;-91
2022/06/24 20:24:24;;;;;;;3.80;3.70;;;;;;;;;;4969117;28;20451;-91
2022/06/24 20:26:51;;;;;;;4.80;4.60;;;;;;;;;;4988391;28;20445;-90
2022/06/24 20:29:39;;;;;;;4.80;4.60;;;;;;;;;;5010750;28;20464;-89
2022/06/24 20:32:14;;;;;;;4.67;4.47;;;;;;;;;;4986637;28;20440;-90
2022/06/24 20:34:49;;;;;;;4.73;4.53;;;;;;;;;;4991694;28;20450;-90
2022/06/24 20:40:48;;;;;;;;;;;;;;;;;;;;;